Time;durP1;ratioP1;P1;durP2;ratioP2;P2;SDS_P1;SDS_P2;PMS_P1;PMS_P2;Temp;Humidity;BMP_temperature;BMP_pressure;BME280_temperature;BME280_humidity;BME280_pressure;Samples;Min_cycle;Max_cycle;Signal;HPM_P1;HPM_P2
2022/03/06 10:39:53;;;;;;;5.70;2.67;;;5.50;99.90;;;;;;5037584;23;20103;-45
2022/03/06 10:42:23;;;;;;;5.57;2.72;;;5.50;99.90;;;;;;4871341;29;20052;-48
2022/03/06 10:44:49;;;;;;;5.90;2.80;;;5.60;99.90;;;;;;4888472;29;20414;-49
2022/03/06 10:47:15;;;;;;;5.57;2.80;;;5.60;99.90;;;;;;4877866;29;20080;-47
2022/03/06 10:49:41;;;;;;;4.60;2.80;;;5.60;99.90;;;;;;4871828;29;20495;-46
2022/03/06 10:52:20;;;;;;;5.40;2.50;;;5.70;99.90;;;;;;4885765;29;20090;-46
2022/03/06 10:54:49;;;;;;;4.05;2.97;;;5.70;99.90;;;;;;4874177;29;20128;-45
2022/03/06 10:57:15;;;;;;;5.82;3.70;;;5.90;99.90;;;;;;4882342;29;20048;-48
2022/03/06 10:59:42;;;;;;;4.57;2.85;;;5.90;99.90;;;;;;4888090;29;20511;-46
2022/03/06 11:02:11;;;;;;;7.13;3.13;;;5.90;99.90;;;;;;4884148;29;20045;-46
2022/03/06 11:04:37;;;;;;;5.20;2.80;;;6.00;99.90;;;;;;4860403;29;20136;-47
2022/03/06 11:07:03;;;;;;;3.88;2.60;;;6.10;99.90;;;;;;4883045;29;20499;-47
2022/03/06 11:09:29;;;;;;;4.88;2.50;;;6.20;99.90;;;;;;4889409;29;20437;-48
2022/03/06 11:12:01;;;;;;;4.72;2.80;;;6.20;99.90;;;;;;4885195;29;20041;-45
2022/03/06 11:14:27;;;;;;;6.57;3.30;;;6.20;99.90;;;;;;4880606;29;20084;-47
2022/03/06 11:16:53;;;;;;;7.00;3.42;;;6.10;99.90;;;;;;4862763;29;20578;-47
2022/03/06 11:19:19;;;;;;;3.92;2.85;;;6.20;99.90;;;;;;4886636;29;20179;-49
2022/03/06 11:21:46;;;;;;;5.60;3.33;;;6.30;99.90;;;;;;4884609;29;20053;-47
2022/03/06 11:24:16;;;;;;;4.97;3.30;;;6.40;99.90;;;;;;4890460;29;20053;-47
2022/03/06 11:27:08;;;;;;;6.40;2.88;;;6.40;99.90;;;;;;4886208;29;20143;-48
2022/03/06 11:30:08;;;;;;;6.60;3.28;;;6.30;99.90;;;;;;4894958;29;20052;-49
2022/03/06 11:32:37;;;;;;;7.53;3.30;;;6.20;99.90;;;;;;4874811;29;20097;-53
2022/03/06 11:35:09;;;;;;;6.53;3.42;;;6.10;99.90;;;;;;4862929;29;22180;-50
2022/03/06 11:37:46;;;;;;;7.10;3.05;;;6.20;99.90;;;;;;4877856;29;20061;-50
2022/03/06 11:40:48;;;;;;;7.00;3.03;;;6.40;99.90;;;;;;4875576;29;20074;-51
2022/03/06 11:43:48;;;;;;;5.20;2.72;;;6.70;99.90;;;;;;4874899;29;20080;-46
2022/03/06 11:46:25;;;;;;;5.75;2.95;;;6.60;99.90;;;;;;4837520;29;20161;-50
2022/03/06 11:48:50;;;;;;;5.82;2.97;;;6.60;99.90;;;;;;4836734;29;20065;-48
2022/03/06 11:51:27;;;;;;;5.85;3.20;;;6.70;99.90;;;;;;4835713;29;20053;-47
2022/03/06 11:54:07;;;;;;;5.85;3.13;;;6.60;99.90;;;;;;4838436;29;20057;-49
2022/03/06 11:59:32;;;;;;;5.72;3.20;;;6.60;99.90;;;;;;4834386;29;20535;-48
2022/03/06 12:01:57;;;;;;;4.80;3.28;;;6.70;99.90;;;;;;4829771;29;20050;-47
2022/03/06 12:04:35;;;;;;;6.60;3.05;;;6.90;99.90;;;;;;4834912;29;20395;-46
2022/03/06 12:07:06;;;;;;;4.85;3.33;;;7.00;99.90;;;;;;4837085;29;20061;-46
2022/03/06 12:09:39;;;;;;;4.95;3.08;;;7.00;99.90;;;;;;4822583;29;20555;-48
2022/03/06 12:12:07;;;;;;;7.13;3.30;;;7.00;99.90;;;;;;4837073;29;20106;-47
2022/03/06 12:14:38;;;;;;;7.13;2.95;;;6.80;99.90;;;;;;4829757;29;20053;-47
2022/03/06 12:17:04;;;;;;;4.72;2.97;;;7.10;99.90;;;;;;4830083;29;20661;-48
2022/03/06 12:19:45;;;;;;;4.10;2.83;;;7.10;99.90;;;;;;4833561;29;20068;-47
2022/03/06 12:22:19;;;;;;;7.57;3.30;;;7.10;99.90;;;;;;4872078;29;20060;-50
2022/03/06 12:24:48;;;;;;;4.63;3.05;;;7.00;99.90;;;;;;4892066;29;20058;-47
2022/03/06 12:27:19;;;;;;;5.43;3.05;;;7.00;99.90;;;;;;4870383;29;20068;-48
2022/03/06 12:29:48;;;;;;;4.32;3.47;;;7.10;99.90;;;;;;4873464;29;20139;-46
2022/03/06 12:32:29;;;;;;;4.72;3.03;;;6.80;99.90;;;;;;4868284;29;20063;-46
2022/03/06 12:34:56;;;;;;;6.65;3.42;;;6.70;99.90;;;;;;4870998;29;20117;-47
2022/03/06 12:37:28;;;;;;;3.20;2.80;;;6.80;99.90;;;;;;4888785;29;20491;-48
2022/03/06 12:39:55;;;;;;;7.15;3.70;;;6.70;99.90;;;;;;4884701;29;20167;-47
2022/03/06 12:42:31;;;;;;;6.65;3.40;;;6.60;99.90;;;;;;4890018;29;20056;-45
2022/03/06 12:45:00;;;;;;;7.15;3.10;;;6.60;99.90;;;;;;4894402;29;20131;-48
2022/03/06 12:47:29;;;;;;;6.13;2.80;;;6.70;99.90;;;;;;4876951;29;20064;-51
2022/03/06 12:49:56;;;;;;;6.43;3.63;;;6.50;99.90;;;;;;4864869;29;20052;-49
2022/03/06 12:52:25;;;;;;;10.00;3.75;;;6.50;99.90;;;;;;4885240;29;20072;-48
2022/03/06 12:54:52;;;;;;;6.20;2.92;;;6.40;99.90;;;;;;4888158;29;20111;-48
2022/03/06 12:57:19;;;;;;;8.63;3.50;;;6.50;99.90;;;;;;4867067;29;20040;-51
2022/03/06 12:59:48;;;;;;;6.63;3.28;;;6.80;99.90;;;;;;4862428;29;20206;-49
2022/03/06 13:02:21;;;;;;;5.97;3.08;;;6.80;99.90;;;;;;4884655;29;20048;-47
2022/03/06 13:04:51;;;;;;;6.82;2.97;;;6.70;99.90;;;;;;4880959;29;20053;-50
2022/03/06 13:07:25;;;;;;;13.65;3.75;;;6.80;99.90;;;;;;4888166;29;20059;-49
2022/03/06 13:10:06;;;;;;;9.95;3.30;;;6.60;99.90;;;;;;4892557;29;20522;-47
2022/03/06 13:12:43;;;;;;;5.72;3.00;;;6.60;99.90;;;;;;4885506;29;20084;-48
2022/03/06 13:15:15;;;;;;;7.30;3.15;;;6.60;99.90;;;;;;4888411;29;20570;-47
2022/03/06 13:17:41;;;;;;;10.70;4.25;;;6.70;99.90;;;;;;4876277;29;20475;-51
2022/03/06 13:20:08;;;;;;;6.57;3.17;;;6.80;99.90;;;;;;4891805;29;20052;-45
2022/03/06 13:22:34;;;;;;;6.68;3.38;;;6.50;99.90;;;;;;4887071;29;20052;-45
2022/03/06 13:25:01;;;;;;;8.38;3.63;;;6.40;99.90;;;;;;4886678;29;20566;-48
2022/03/06 13:27:29;;;;;;;7.35;3.13;;;6.40;99.90;;;;;;4889148;29;20494;-47
2022/03/06 13:30:05;;;;;;;5.05;3.17;;;6.40;99.90;;;;;;4890963;29;20174;-48
2022/03/06 13:32:36;;;;;;;5.53;3.75;;;6.50;99.90;;;;;;4886324;29;20107;-47
2022/03/06 13:35:04;;;;;;;5.80;2.80;;;6.70;99.90;;;;;;4888343;29;20053;-47
2022/03/06 13:37:39;;;;;;;4.85;3.10;;;6.70;99.90;;;;;;4885267;29;20431;-48
2022/03/06 13:40:11;;;;;;;8.15;3.40;;;6.60;99.90;;;;;;4890283;29;20061;-48
2022/03/06 13:42:37;;;;;;;5.45;2.95;;;6.70;99.90;;;;;;4880557;29;20061;-47
2022/03/06 13:45:09;;;;;;;5.53;2.75;;;6.70;99.90;;;;;;4887545;29;20728;-49
2022/03/06 13:47:40;;;;;;;4.32;3.33;;;6.80;99.90;;;;;;4887322;29;20123;-52
2022/03/06 13:50:07;;;;;;;6.95;3.40;;;6.60;99.90;;;;;;4875397;29;20396;-48
2022/03/06 13:52:36;;;;;;;5.18;3.63;;;6.50;99.90;;;;;;4873522;29;20058;-48
2022/03/06 13:55:08;;;;;;;6.03;3.35;;;6.40;99.90;;;;;;4872314;29;20052;-47
2022/03/06 13:57:35;;;;;;;4.97;2.73;;;6.60;99.90;;;;;;4892419;29;20059;-48
2022/03/06 14:00:23;;;;;;;4.60;2.92;;;6.70;99.90;;;;;;4888731;29;20331;-48
2022/03/06 14:03:00;;;;;;;5.90;2.97;;;6.60;99.90;;;;;;4861185;29;20052;-49
2022/03/06 14:05:32;;;;;;;7.43;3.58;;;6.60;99.90;;;;;;4868429;29;20151;-52
2022/03/06 14:08:19;;;;;;;7.00;3.20;;;6.60;99.90;;;;;;4884669;29;20076;-50
2022/03/06 14:10:56;;;;;;;6.25;3.33;;;6.40;99.90;;;;;;4891077;29;20107;-48
2022/03/06 14:13:28;;;;;;;6.53;3.58;;;6.30;99.90;;;;;;4873095;29;20562;-49
2022/03/06 14:16:07;;;;;;;8.20;3.00;;;6.40;99.90;;;;;;4892600;29;20147;-47
2022/03/06 14:18:44;;;;;;;5.88;2.90;;;6.50;99.90;;;;;;4886816;29;20135;-46
2022/03/06 14:21:35;;;;;;;8.48;3.10;;;6.50;99.90;;;;;;4886282;29;20463;-46
2022/03/06 14:24:06;;;;;;;5.55;3.25;;;6.40;99.90;;;;;;4891145;29;20072;-47
2022/03/06 14:26:38;;;;;;;5.82;2.83;;;6.30;99.90;;;;;;4891700;29;20166;-48
2022/03/06 14:29:26;;;;;;;4.45;2.88;;;6.40;99.90;;;;;;4884384;29;20087;-45
2022/03/06 14:32:00;;;;;;;5.00;3.22;;;6.40;99.90;;;;;;4888456;29;20090;-48
2022/03/06 14:34:31;;;;;;;6.38;3.35;;;6.60;99.90;;;;;;4861586;29;20111;-49
2022/03/06 14:36:59;;;;;;;4.72;2.97;;;6.60;99.90;;;;;;4888386;29;20065;-49
2022/03/06 14:39:25;;;;;;;6.60;2.75;;;6.60;99.90;;;;;;4876142;29;20051;-48
2022/03/06 14:41:51;;;;;;;6.65;3.05;;;6.70;99.90;;;;;;4872258;29;20084;-47
2022/03/06 14:44:18;;;;;;;5.45;3.60;;;6.70;99.90;;;;;;4872188;29;20151;-47
2022/03/06 14:46:45;;;;;;;5.95;3.45;;;6.60;99.90;;;;;;4874375;29;20048;-47
2022/03/06 14:49:13;;;;;;;5.75;3.72;;;6.50;99.90;;;;;;4892075;29;20550;-46
2022/03/06 14:51:39;;;;;;;5.50;3.20;;;6.40;99.90;;;;;;4879252;29;20147;-47
2022/03/06 14:54:06;;;;;;;4.82;2.97;;;6.40;99.90;;;;;;4890408;29;20598;-48
2022/03/06 14:56:33;;;;;;;3.65;2.58;;;6.50;99.90;;;;;;4863663;29;20056;-47
2022/03/06 14:59:00;;;;;;;6.18;2.65;;;6.60;99.90;;;;;;4896213;29;20483;-48
2022/03/06 15:01:27;;;;;;;4.75;2.60;;;6.60;99.90;;;;;;4894830;29;20060;-47
2022/03/06 15:03:53;;;;;;;8.90;3.38;;;6.50;99.90;;;;;;4889126;29;20048;-48
2022/03/06 15:06:19;;;;;;;7.28;3.10;;;6.40;99.90;;;;;;4886083;29;20076;-46
2022/03/06 15:08:45;;;;;;;15.93;3.55;;;6.40;99.90;;;;;;4894521;29;20044;-47
2022/03/06 15:11:13;;;;;;;7.80;3.10;;;6.30;99.90;;;;;;4897189;29;20050;-48
2022/03/06 15:13:39;;;;;;;4.57;2.80;;;6.30;99.90;;;;;;4894792;29;20159;-47
2022/03/06 15:16:06;;;;;;;5.15;2.80;;;6.30;99.90;;;;;;4897187;29;20064;-44
2022/03/06 15:18:32;;;;;;;7.72;3.10;;;6.40;99.90;;;;;;4895187;29;20127;-48
2022/03/06 15:20:58;;;;;;;7.72;3.67;;;6.50;99.90;;;;;;4877719;29;20528;-48
2022/03/06 15:23:24;;;;;;;5.13;3.33;;;6.50;99.90;;;;;;4894478;29;20052;-50
2022/03/06 15:25:50;;;;;;;5.28;3.42;;;6.50;99.90;;;;;;4881240;29;20052;-48
2022/03/06 15:28:16;;;;;;;8.65;2.85;;;6.50;99.90;;;;;;4893994;29;20084;-49
2022/03/06 15:30:43;;;;;;;9.35;3.17;;;6.50;99.90;;;;;;4892289;29;20052;-47
2022/03/06 15:33:08;;;;;;;5.07;2.85;;;6.40;99.90;;;;;;4876022;29;20123;-46
2022/03/06 15:35:34;;;;;;;7.22;3.72;;;6.50;99.90;;;;;;4893339;29;20566;-47
2022/03/06 15:38:00;;;;;;;7.40;2.92;;;6.60;99.90;;;;;;4891061;29;20048;-46
2022/03/06 15:40:26;;;;;;;5.72;3.17;;;6.60;99.90;;;;;;4894205;29;20064;-47
2022/03/06 15:42:52;;;;;;;6.55;3.22;;;6.60;99.90;;;;;;4891544;29;20063;-47
2022/03/06 15:45:18;;;;;;;5.80;3.20;;;6.50;99.90;;;;;;4889987;29;20470;-46
2022/03/06 15:47:43;;;;;;;6.75;3.05;;;6.40;99.90;;;;;;4892546;29;20048;-48
2022/03/06 15:50:13;;;;;;;4.57;3.35;;;6.30;99.90;;;;;;4891306;29;20472;-47
2022/03/06 15:52:41;;;;;;;5.47;3.30;;;6.20;99.90;;;;;;4895321;29;20566;-45
2022/03/06 15:55:08;;;;;;;4.30;2.67;;;6.10;99.90;;;;;;4879076;29;20404;-48
2022/03/06 15:57:39;;;;;;;7.35;3.40;;;6.10;99.90;;;;;;4894372;29;20047;-44
2022/03/06 16:00:08;;;;;;;5.45;3.25;;;6.10;99.90;;;;;;4895084;29;20107;-48
2022/03/06 16:02:34;;;;;;;8.13;3.88;;;6.20;99.90;;;;;;4894272;29;20608;-47
2022/03/06 16:05:00;;;;;;;7.38;3.85;;;6.20;99.90;;;;;;4876198;29;20073;-47
2022/03/06 16:07:25;;;;;;;6.18;3.83;;;6.20;99.90;;;;;;4875035;29;20048;-47
2022/03/06 16:09:51;;;;;;;7.50;3.85;;;6.10;99.90;;;;;;4889205;29;20163;-46
2022/03/06 16:12:17;;;;;;;8.73;4.20;;;6.00;99.90;;;;;;4892046;29;20048;-47
2022/03/06 16:14:42;;;;;;;6.72;4.63;;;6.00;99.90;;;;;;4874630;29;20418;-47
2022/03/06 16:17:08;;;;;;;6.90;3.70;;;5.90;99.90;;;;;;4896235;29;20099;-49
2022/03/06 16:19:34;;;;;;;6.70;3.72;;;5.90;99.90;;;;;;4893105;29;20055;-47
2022/03/06 16:22:00;;;;;;;6.68;3.50;;;5.80;99.90;;;;;;4875183;29;20503;-48
2022/03/06 16:24:27;;;;;;;6.80;3.47;;;5.70;99.90;;;;;;4892285;29;20179;-46
2022/03/06 16:26:52;;;;;;;7.28;3.42;;;5.70;99.90;;;;;;4890161;29;20946;-47
2022/03/06 16:29:18;;;;;;;6.10;3.67;;;5.60;99.90;;;;;;4892171;29;20056;-47
2022/03/06 16:31:44;;;;;;;6.93;4.13;;;5.50;99.90;;;;;;4894314;29;20054;-47
2022/03/06 16:34:10;;;;;;;6.68;3.67;;;5.50;99.90;;;;;;4877628;29;20056;-50
2022/03/06 16:36:36;;;;;;;11.05;3.78;;;5.50;99.90;;;;;;4877929;29;20814;-49
2022/03/06 16:39:06;;;;;;;7.10;3.10;;;5.40;99.90;;;;;;4877757;29;20055;-48
2022/03/06 16:41:32;;;;;;;6.97;3.63;;;5.40;99.90;;;;;;4885810;29;20057;-49
2022/03/06 16:44:06;;;;;;;6.28;3.22;;;5.40;99.90;;;;;;4886069;29;20063;-47
2022/03/06 16:46:32;;;;;;;;;;;5.40;99.90;;;;;;4883961;29;20069;-47
2022/03/06 16:48:58;;;;;;;7.00;3.10;;;5.40;99.90;;;;;;4855741;29;19927;-47
2022/03/06 16:51:29;;;;;;;11.80;3.63;;;5.30;99.90;;;;;;4889637;29;20064;-47
2022/03/06 16:53:55;;;;;;;6.68;3.13;;;5.20;99.90;;;;;;4871680;29;20634;-46
2022/03/06 16:56:21;;;;;;;9.77;3.60;;;5.10;99.90;;;;;;4889726;29;20046;-48
2022/03/06 16:58:47;;;;;;;7.75;3.97;;;5.10;99.90;;;;;;4894857;29;20139;-49
2022/03/06 17:01:13;;;;;;;7.07;4.15;;;5.00;99.90;;;;;;4890162;29;20040;-48
2022/03/06 17:03:39;;;;;;;11.68;4.20;;;5.00;99.90;;;;;;4890218;29;20100;-44
2022/03/06 17:06:05;;;;;;;6.70;3.63;;;5.00;99.90;;;;;;4846198;29;20060;-45
2022/03/06 17:08:34;;;;;;;7.20;4.30;;;5.00;99.90;;;;;;4875215;29;20135;-47
2022/03/06 17:11:00;;;;;;;9.05;4.57;;;4.90;99.90;;;;;;4894567;29;20052;-46
2022/03/06 17:13:26;;;;;;;7.65;4.40;;;4.90;99.90;;;;;;4888471;29;20041;-47
2022/03/06 17:15:51;;;;;;;6.95;3.80;;;4.80;99.90;;;;;;4888373;29;20490;-47
2022/03/06 17:18:18;;;;;;;6.90;3.65;;;4.80;99.90;;;;;;4888298;29;20116;-47
2022/03/06 17:20:46;;;;;;;8.38;4.13;;;4.70;99.90;;;;;;4893055;29;20048;-46
2022/03/06 17:23:14;;;;;;;8.48;4.45;;;4.70;99.90;;;;;;4893572;29;20047;-47
2022/03/06 17:25:41;;;;;;;7.18;4.13;;;4.70;99.90;;;;;;4893149;29;20139;-43
2022/03/06 17:28:08;;;;;;;10.02;4.28;;;4.70;99.90;;;;;;4893443;29;20060;-48
2022/03/06 17:30:36;;;;;;;10.57;4.70;;;4.60;99.90;;;;;;4891908;29;20048;-46
2022/03/06 17:33:03;;;;;;;6.10;4.47;;;4.60;99.90;;;;;;4873105;29;20386;-46
2022/03/06 17:35:29;;;;;;;6.53;4.20;;;4.50;99.90;;;;;;4893938;29;20051;-49
2022/03/06 17:37:55;;;;;;;7.65;4.68;;;4.50;99.90;;;;;;4892573;29;20040;-47
2022/03/06 17:40:21;;;;;;;7.65;4.55;;;4.50;99.90;;;;;;4895049;29;20527;-45
2022/03/06 17:42:47;;;;;;;7.53;4.35;;;4.50;99.90;;;;;;4872608;29;20610;-47
2022/03/06 17:45:13;;;;;;;8.00;4.60;;;4.50;99.90;;;;;;4889408;29;20503;-48
2022/03/06 17:47:39;;;;;;;10.18;4.60;;;4.50;99.90;;;;;;4892975;29;20052;-47
2022/03/06 17:50:05;;;;;;;7.55;3.92;;;4.50;99.90;;;;;;4898402;29;20071;-47
2022/03/06 17:52:31;;;;;;;6.43;3.90;;;4.40;99.90;;;;;;4892574;29;20072;-46
2022/03/06 17:54:57;;;;;;;9.52;4.22;;;4.40;99.90;;;;;;4890486;29;20053;-48
2022/03/06 17:57:23;;;;;;;10.68;3.97;;;4.40;99.90;;;;;;4882825;29;20162;-43
2022/03/06 17:59:50;;;;;;;8.70;4.15;;;4.40;99.90;;;;;;4886878;29;20377;-46
2022/03/06 18:02:16;;;;;;;9.15;4.05;;;4.30;99.90;;;;;;4885667;29;20112;-47
2022/03/06 18:04:45;;;;;;;6.88;4.35;;;4.30;99.90;;;;;;4881129;29;20101;-42
2022/03/06 18:07:10;;;;;;;9.48;4.43;;;4.20;99.90;;;;;;4883694;29;20048;-47
2022/03/06 18:09:36;;;;;;;6.57;3.95;;;4.30;99.90;;;;;;4885506;29;20312;-44
2022/03/06 18:12:02;;;;;;;7.93;4.55;;;4.30;99.90;;;;;;4882542;29;20055;-45
2022/03/06 18:14:31;;;;;;;11.48;4.25;;;4.20;99.90;;;;;;4864594;29;20044;-44
2022/03/06 18:16:57;;;;;;;8.35;4.25;;;4.20;99.90;;;;;;4869576;29;20064;-44
2022/03/06 18:19:22;;;;;;;7.55;4.38;;;4.20;99.90;;;;;;4882322;29;20052;-46
2022/03/06 18:21:49;;;;;;;10.38;4.50;;;4.20;99.90;;;;;;4885938;29;20056;-45
2022/03/06 18:24:15;;;;;;;13.25;4.78;;;4.20;99.90;;;;;;4875077;29;20052;-46
2022/03/06 18:26:46;;;;;;;7.88;4.38;;;4.30;99.90;;;;;;4866903;29;20427;-44
2022/03/06 18:29:12;;;;;;;11.88;4.10;;;4.20;99.90;;;;;;4885956;29;20444;-44
2022/03/06 18:31:41;;;;;;;10.38;4.53;;;4.20;99.90;;;;;;4886702;29;20115;-45
2022/03/06 18:34:19;;;;;;;7.93;4.47;;;4.20;99.90;;;;;;4882657;29;20051;-46
2022/03/06 18:36:48;;;;;;;8.10;4.35;;;4.10;99.90;;;;;;4864937;29;20060;-48
2022/03/06 18:39:16;;;;;;;7.53;4.40;;;4.10;99.90;;;;;;4883123;29;20096;-44
2022/03/06 18:41:43;;;;;;;9.55;4.53;;;4.10;99.90;;;;;;4880740;29;20057;-49
2022/03/06 18:44:17;;;;;;;7.50;4.43;;;4.10;99.90;;;;;;4881818;29;20528;-44
2022/03/06 18:46:43;;;;;;;9.60;4.60;;;4.10;99.90;;;;;;4882813;29;20055;-44
2022/03/06 18:49:08;;;;;;;10.82;4.72;;;4.10;99.90;;;;;;4881616;29;20446;-44
2022/03/06 18:51:38;;;;;;;8.18;4.28;;;4.10;99.90;;;;;;4884824;29;20421;-45
2022/03/06 18:54:04;;;;;;;11.68;5.28;;;4.10;99.90;;;;;;4874146;29;20096;-44
2022/03/06 18:56:30;;;;;;;8.57;4.32;;;4.20;99.90;;;;;;4889245;29;20048;-45
2022/03/06 18:58:56;;;;;;;9.82;4.57;;;4.20;99.90;;;;;;4880592;29;20139;-45
2022/03/06 19:01:23;;;;;;;10.38;5.03;;;4.20;99.90;;;;;;4885683;29;20040;-47
2022/03/06 19:03:50;;;;;;;10.18;4.50;;;4.10;99.90;;;;;;4869291;29;20049;-45
2022/03/06 19:06:16;;;;;;;12.35;4.80;;;4.10;99.90;;;;;;4875756;29;20060;-50
2022/03/06 19:08:43;;;;;;;9.00;4.75;;;4.10;99.90;;;;;;4873000;29;20041;-45
2022/03/06 19:11:12;;;;;;;7.18;4.68;;;4.10;99.90;;;;;;4877870;29;20495;-42
2022/03/06 19:13:39;;;;;;;13.80;5.00;;;4.10;99.90;;;;;;4878286;29;20135;-45
2022/03/06 19:16:05;;;;;;;9.82;4.47;;;4.00;99.90;;;;;;4873530;29;20048;-45
2022/03/06 19:18:31;;;;;;;11.90;5.13;;;4.00;99.90;;;;;;4857175;29;20053;-46
2022/03/06 19:20:57;;;;;;;8.52;4.50;;;4.00;99.90;;;;;;4875606;29;20060;-45
2022/03/06 19:23:23;;;;;;;7.53;4.63;;;4.00;99.90;;;;;;4875770;29;20132;-45
2022/03/06 19:25:49;;;;;;;11.00;4.80;;;4.00;99.90;;;;;;4873663;29;20053;-46
2022/03/06 19:28:16;;;;;;;6.35;4.43;;;4.00;99.90;;;;;;4876218;29;20059;-46
2022/03/06 19:30:42;;;;;;;11.18;4.82;;;3.90;99.90;;;;;;4858128;29;20508;-46
2022/03/06 19:33:08;;;;;;;10.05;4.07;;;3.90;99.90;;;;;;4879613;29;20060;-48
2022/03/06 19:35:34;;;;;;;8.23;3.30;;;4.00;99.90;;;;;;4880234;29;20040;-48
2022/03/06 19:38:00;;;;;;;9.02;2.88;;;4.00;99.90;;;;;;4880333;29;20052;-45
2022/03/06 19:40:27;;;;;;;8.23;3.03;;;4.00;99.90;;;;;;4880913;29;20600;-46
2022/03/06 19:42:53;;;;;;;9.85;2.95;;;4.00;99.90;;;;;;4880528;29;20059;-44
2022/03/06 19:45:19;;;;;;;8.70;2.20;;;4.10;99.90;;;;;;4858205;29;20061;-45
2022/03/06 19:47:47;;;;;;;7.20;2.88;;;4.10;99.90;;;;;;4878777;29;20051;-48
2022/03/06 19:50:14;;;;;;;8.43;2.28;;;4.20;99.90;;;;;;4877248;29;20059;-48
2022/03/06 19:52:43;;;;;;;8.57;2.17;;;4.10;99.90;;;;;;4866623;29;20493;-44
2022/03/06 19:55:10;;;;;;;12.48;2.58;;;4.10;99.90;;;;;;4874825;29;20121;-48
2022/03/06 19:57:36;;;;;;;8.77;2.55;;;4.10;99.90;;;;;;4861476;29;20057;-46
2022/03/06 20:00:07;;;;;;;7.68;2.38;;;4.10;99.90;;;;;;4879355;29;20495;-45
2022/03/06 20:02:34;;;;;;;6.05;2.45;;;4.00;99.90;;;;;;4882524;29;20053;-47
2022/03/06 20:05:00;;;;;;;8.10;2.13;;;3.90;99.90;;;;;;4878406;29;20048;-45
2022/03/06 20:07:26;;;;;;;8.93;2.17;;;3.90;99.90;;;;;;4876843;29;20083;-46
2022/03/06 20:09:52;;;;;;;12.02;2.28;;;3.80;99.90;;;;;;4879479;29;20167;-46
2022/03/06 20:12:20;;;;;;;9.43;2.28;;;3.70;99.90;;;;;;4880896;29;20052;-45
2022/03/06 20:14:46;;;;;;;10.45;2.97;;;3.70;99.90;;;;;;4867282;29;20143;-46
2022/03/06 20:17:12;;;;;;;5.72;2.35;;;3.60;99.90;;;;;;4867121;29;20055;-44
2022/03/06 20:19:38;;;;;;;8.90;2.17;;;3.60;99.90;;;;;;4880745;29;20060;-47
2022/03/06 20:22:04;;;;;;;8.93;2.58;;;3.50;99.90;;;;;;4880299;29;20428;-46
2022/03/06 20:24:30;;;;;;;8.73;2.22;;;3.40;99.90;;;;;;4876099;29;20068;-42
2022/03/06 20:26:57;;;;;;;5.90;2.00;;;3.50;99.90;;;;;;4881552;29;20049;-45
2022/03/06 20:29:23;;;;;;;8.05;2.25;;;3.50;99.90;;;;;;4874706;29;20091;-44
2022/03/06 20:31:50;;;;;;;6.53;2.20;;;3.60;99.90;;;;;;4876802;29;20056;-45
2022/03/06 20:34:16;;;;;;;7.40;2.10;;;3.50;99.90;;;;;;4880374;29;20135;-46
2022/03/06 20:36:42;;;;;;;4.85;2.15;;;3.50;99.90;;;;;;4863290;29;20586;-45
2022/03/06 20:39:08;;;;;;;7.57;2.67;;;3.40;99.90;;;;;;4879659;29;20048;-44
2022/03/06 20:41:34;;;;;;;5.63;2.08;;;3.40;99.90;;;;;;4877887;29;20588;-44
2022/03/06 20:44:00;;;;;;;8.07;2.72;;;3.40;99.90;;;;;;4862972;29;20576;-46
2022/03/06 20:46:25;;;;;;;5.65;2.10;;;3.30;99.90;;;;;;4858988;29;20069;-47
2022/03/06 20:48:52;;;;;;;5.22;2.15;;;3.30;99.90;;;;;;4863140;29;20594;-47
2022/03/06 20:51:20;;;;;;;4.25;1.67;;;3.30;99.90;;;;;;4875565;29;20048;-44
2022/03/06 20:53:45;;;;;;;5.07;1.88;;;3.20;99.90;;;;;;4876503;29;20048;-42
2022/03/06 20:56:11;;;;;;;9.73;2.90;;;3.20;99.90;;;;;;4875507;29;20048;-44
2022/03/06 20:58:37;;;;;;;5.25;1.98;;;3.10;99.90;;;;;;4876376;29;20423;-46
2022/03/06 21:01:03;;;;;;;6.97;2.10;;;3.00;99.90;;;;;;4881279;29;20127;-47
2022/03/06 21:03:28;;;;;;;4.63;1.83;;;3.00;99.90;;;;;;4876558;29;20472;-47
2022/03/06 21:05:54;;;;;;;7.13;1.50;;;2.80;99.90;;;;;;4857864;29;20211;-44
2022/03/06 21:08:20;;;;;;;5.47;1.73;;;2.70;99.90;;;;;;4877384;29;20088;-46
2022/03/06 21:10:49;;;;;;;5.80;1.80;;;2.60;99.90;;;;;;4880528;29;20136;-44
2022/03/06 21:13:15;;;;;;;6.78;2.20;;;2.70;99.90;;;;;;4874231;29;20056;-47
2022/03/06 21:15:46;;;;;;;7.13;2.25;;;2.70;99.90;;;;;;4879041;29;20045;-47
2022/03/06 21:18:13;;;;;;;9.40;1.88;;;2.60;99.90;;;;;;4861110;29;20064;-46
2022/03/06 21:20:43;;;;;;;8.30;1.80;;;2.60;99.90;;;;;;4880337;29;20056;-45
2022/03/06 21:23:10;;;;;;;5.35;1.83;;;2.60;99.90;;;;;;4878989;29;20831;-44
2022/03/06 21:25:36;;;;;;;5.75;1.80;;;2.50;99.90;;;;;;4880485;29;20061;-46
2022/03/06 21:28:03;;;;;;;8.32;2.35;;;2.50;99.90;;;;;;4864043;29;20071;-49
2022/03/06 21:30:29;;;;;;;5.93;1.75;;;2.40;99.90;;;;;;4880650;29;20052;-41
2022/03/06 21:32:55;;;;;;;7.35;2.10;;;2.30;99.90;;;;;;4876893;29;20164;-45
2022/03/06 21:35:21;;;;;;;5.13;2.25;;;2.20;99.90;;;;;;4861413;29;20056;-43
2022/03/06 21:37:50;;;;;;;9.23;2.17;;;2.20;99.90;;;;;;4866009;29;20083;-46
2022/03/06 21:40:18;;;;;;;3.55;1.50;;;2.00;99.90;;;;;;4877391;29;20057;-45
2022/03/06 21:42:45;;;;;;;4.35;1.80;;;1.90;99.90;;;;;;4878148;29;20045;-45
2022/03/06 21:45:14;;;;;;;7.10;1.75;;;1.90;99.90;;;;;;4877707;29;20041;-45
2022/03/06 21:47:40;;;;;;;4.47;1.10;;;1.90;99.90;;;;;;4860473;29;20570;-44
2022/03/06 21:50:07;;;;;;;6.28;1.30;;;1.80;99.90;;;;;;4888666;29;20060;-45
2022/03/06 21:52:32;;;;;;;2.40;0.95;;;1.70;99.90;;;;;;4891065;29;20139;-44
2022/03/06 21:54:58;;;;;;;4.78;1.73;;;1.60;99.90;;;;;;4893220;29;20123;-47
2022/03/06 21:57:24;;;;;;;5.95;1.30;;;1.60;99.90;;;;;;4891469;29;20729;-46
2022/03/06 21:59:50;;;;;;;4.00;1.27;;;1.50;99.90;;;;;;4893026;29;20104;-46
2022/03/06 22:02:16;;;;;;;7.82;1.80;;;1.40;99.90;;;;;;4870906;29;20385;-49
2022/03/06 22:04:42;;;;;;;5.78;1.42;;;1.40;99.90;;;;;;4873756;29;20457;-45
2022/03/06 22:07:08;;;;;;;5.95;1.60;;;1.30;99.90;;;;;;4891470;29;20585;-46
2022/03/06 22:09:34;;;;;;;7.38;1.50;;;1.40;99.90;;;;;;4889207;29;20542;-48
2022/03/06 22:11:59;;;;;;;15.85;4.13;;;1.30;99.90;;;;;;4890665;29;20052;-47
2022/03/06 22:14:25;;;;;;;6.00;1.75;;;1.40;99.90;;;;;;4888709;29;20049;-49
2022/03/06 22:16:52;;;;;;;7.78;1.67;;;1.40;99.90;;;;;;4886812;29;21540;-43
2022/03/06 22:19:18;;;;;;;8.25;1.85;;;1.30;99.90;;;;;;4885718;29;20087;-47
2022/03/06 22:21:44;;;;;;;6.85;1.80;;;1.30;99.90;;;;;;4884016;29;20071;-46
2022/03/06 22:24:10;;;;;;;6.93;1.70;;;1.30;99.90;;;;;;4883044;29;20610;-44
2022/03/06 22:26:36;;;;;;;8.52;1.83;;;1.20;99.90;;;;;;4882403;29;20186;-46
2022/03/06 22:29:02;;;;;;;6.05;1.63;;;1.20;99.90;;;;;;4884589;29;20060;-45
2022/03/06 22:31:29;;;;;;;8.45;2.00;;;1.10;99.90;;;;;;4885032;29;20057;-47
2022/03/06 22:33:55;;;;;;;4.28;2.17;;;1.20;99.90;;;;;;4884837;29;20063;-49
2022/03/06 22:36:21;;;;;;;3.88;2.05;;;1.20;99.90;;;;;;4880095;29;20045;-47
2022/03/06 22:38:47;;;;;;;7.25;1.73;;;1.20;99.90;;;;;;4883943;29;20088;-46
2022/03/06 22:41:16;;;;;;;6.10;1.50;;;1.20;99.90;;;;;;4866464;29;20065;-44
2022/03/06 22:43:42;;;;;;;8.45;1.98;;;1.20;99.90;;;;;;4880902;29;20633;-46
2022/03/06 22:46:07;;;;;;;3.83;1.60;;;1.20;99.90;;;;;;4880692;29;20540;-43
2022/03/06 22:48:34;;;;;;;6.90;1.75;;;1.20;99.90;;;;;;4884770;29;20056;-48
2022/03/06 22:51:00;;;;;;;4.72;1.50;;;1.20;99.90;;;;;;4883730;29;20060;-46
2022/03/06 22:53:26;;;;;;;6.28;1.75;;;1.10;99.90;;;;;;4884075;29;20041;-44
2022/03/06 22:55:51;;;;;;;8.05;1.58;;;1.10;99.90;;;;;;4880457;29;20153;-45
2022/03/06 22:58:19;;;;;;;6.90;1.75;;;1.00;99.90;;;;;;4858444;29;20057;-47
2022/03/06 23:00:45;;;;;;;7.30;1.73;;;1.00;99.90;;;;;;4869229;29;20479;-48
2022/03/06 23:03:12;;;;;;;4.55;1.60;;;1.00;99.90;;;;;;4890925;29;20061;-47
2022/03/06 23:08:24;;;;;;;8.02;1.60;;;0.90;99.90;;;;;;4888079;29;20048;-46
2022/03/06 23:10:50;;;;;;;5.88;1.50;;;0.90;99.90;;;;;;4888326;29;20048;-47
2022/03/06 23:13:17;;;;;;;5.55;1.65;;;0.80;99.90;;;;;;4887794;29;20109;-45
2022/03/06 23:15:43;;;;;;;6.20;1.55;;;0.80;99.90;;;;;;4886531;29;20057;-47
2022/03/06 23:18:10;;;;;;;4.03;1.77;;;0.70;99.90;;;;;;4887364;29;20052;-45
2022/03/06 23:20:36;;;;;;;3.15;1.42;;;0.70;99.90;;;;;;4887930;29;20171;-45
2022/03/06 23:23:02;;;;;;;6.72;1.75;;;0.60;99.90;;;;;;4886590;29;20052;-44
2022/03/06 23:25:29;;;;;;;5.90;1.50;;;0.60;99.90;;;;;;4869600;29;20057;-45
2022/03/06 23:27:54;;;;;;;2.47;1.58;;;0.50;99.90;;;;;;4887600;29;20059;-45
2022/03/06 23:30:20;;;;;;;4.32;1.50;;;0.50;99.90;;;;;;4890379;29;20491;-42
2022/03/06 23:32:47;;;;;;;6.22;1.60;;;0.50;99.90;;;;;;4894144;29;20099;-45
2022/03/06 23:35:14;;;;;;;3.83;1.67;;;0.50;99.90;;;;;;4894372;29;20452;-42
2022/03/06 23:37:40;;;;;;;6.65;1.92;;;0.50;99.90;;;;;;4889077;29;20144;-43
2022/03/06 23:40:07;;;;;;;6.65;2.10;;;0.40;99.90;;;;;;4889926;29;20493;-49
2022/03/06 23:42:33;;;;;;;7.40;2.10;;;0.40;99.90;;;;;;4886953;29;20975;-46
2022/03/06 23:45:00;;;;;;;8.32;3.95;;;0.30;99.90;;;;;;4881414;29;20049;-46